Bookmark and Share
Track history (hours):
 

Monte Tamaro

Last reported at 2014-Apr-08 13:06 UTC. Time now 2014-Apr-18 10:37 UTC.
Position N 29°28' W 094°51'.
Warning: this ship's position is 9 days out of date.

Length 272.1 m; beam 40.1 m; draft 13.2 m.

Type: Ship (hazmat cat B). MMSI: 218132000.

NotesDate/timePositionNaut miles runAvg speedWind from/ knotsBaromVisibWave heightAir tempDewpointWater temp
2014-Apr-08 13:06N 29°28' W 094°51'610.6
2014-Apr-08 12:31N 29°33' W 094°55'9 9.4
2014-Apr-08 11:33N 29°41' W 094°60'1 0.5
2014-Apr-08 10:33N 29°41' W 095°00'0 0.0
2014-Apr-08 09:31N 29°41' W 095°00'0 0.0
2014-Apr-08 08:31N 29°41' W 095°00'0 0.0
2014-Apr-08 07:31N 29°41' W 095°00'0 0.0
2014-Apr-08 06:31N 29°41' W 095°00'0 0.0
2014-Apr-08 05:31N 29°41' W 095°00'0 0.0
2014-Apr-08 04:31N 29°41' W 095°00'0 0.0
2014-Apr-08 03:31N 29°41' W 095°00'0 0.0
2014-Apr-08 02:31N 29°41' W 095°00'0 0.0
2014-Apr-08 01:31N 29°41' W 095°00'0 0.0
2014-Apr-08 00:31N 29°41' W 095°00'0 0.0
2014-Apr-07 23:31N 29°41' W 095°00'0 0.0
2014-Apr-07 22:31N 29°41' W 095°00'0 0.0
2014-Apr-07 21:31N 29°41' W 095°00'0 0.0
2014-Apr-07 20:31N 29°41' W 095°00'0 0.0
2014-Apr-07 19:31N 29°41' W 095°00'0 0.0
2014-Apr-07 17:28N 29°41' W 095°00'0 0.0
2014-Apr-07 16:31N 29°41' W 095°00'0 0.0
2014-Apr-07 15:31N 29°41' W 095°00'0 0.0
2014-Apr-07 14:31N 29°41' W 095°00'0 0.0
2014-Apr-07 13:31N 29°41' W 095°00'0 0.0
2014-Apr-07 12:31N 29°41' W 095°00'0 0.0
2014-Apr-07 11:31N 29°41' W 095°00'0 0.0
2014-Apr-07 10:28N 29°41' W 095°00'0 0.0
2014-Apr-07 09:31N 29°41' W 095°00'0 0.0
2014-Apr-07 08:31N 29°41' W 095°00'0 0.0
2014-Apr-07 07:31N 29°41' W 095°00'0 0.0
2014-Apr-07 06:31N 29°41' W 095°00'0 0.0
2014-Apr-07 05:31N 29°41' W 095°00'0 0.0
2014-Apr-07 04:31N 29°41' W 095°00'0 0.0
2014-Apr-07 03:33N 29°41' W 095°00'5 4.6
2014-Apr-07 02:33N 29°37' W 094°57'1211.8
2014-Apr-07 01:33N 29°27' W 094°51'1111.3
2014-Apr-07 00:33N 29°20' W 094°40'  
2014-Apr-04 08:10N 20°27' W 096°31'1016.7
2014-Apr-04 07:33N 20°18' W 096°27'1716.7
2014-Apr-04 06:33N 20°03' W 096°19'1716.8
2014-Apr-04 05:33N 19°48' W 096°12'1716.6
2014-Apr-04 04:33N 19°33' W 096°04'1616.2
2014-Apr-04 03:33N 19°18' W 095°57'1110.8
2014-Apr-04 02:33N 19°12' W 096°07'1 1.1
2014-Apr-04 01:33N 19°13' W 096°08'0 0.0
2014-Apr-04 00:33N 19°13' W 096°08'0 0.0
2014-Apr-03 23:33N 19°13' W 096°08'0 0.0
2014-Apr-03 22:33N 19°13' W 096°08'0 0.0
2014-Apr-03 21:33N 19°13' W 096°08'0 0.0
2014-Apr-03 20:33N 19°13' W 096°08'0 0.0
2014-Apr-03 19:33N 19°13' W 096°08'0 0.0
2014-Apr-03 18:33N 19°13' W 096°08'0 0.0
2014-Apr-03 17:33N 19°13' W 096°08'0 0.0
2014-Apr-03 16:33N 19°13' W 096°08'0 0.0
2014-Apr-03 15:33N 19°13' W 096°08'5 4.6
2014-Apr-03 14:33N 19°12' W 096°03'1413.6
2014-Apr-03 13:33N 19°15' W 095°49'9 9.4
2014-Apr-03 12:33N 19°20' W 095°41'0 0.4
2014-Apr-03 11:33N 19°19' W 095°41'1 0.7
2014-Apr-03 10:33N 19°19' W 095°41'3 2.9
2014-Apr-03 09:33N 19°21' W 095°39'1514.8
2014-Apr-03 08:34N 19°32' W 095°28'1514.8
2014-Apr-03 07:32N 19°43' W 095°17'1414.7
2014-Apr-03 06:33N 19°53' W 095°07'1414.3
2014-Apr-03 05:34N 20°04' W 094°56'1414.3
2014-Apr-03 04:33N 20°14' W 094°46'  

Dump ship's entire track history

sailing weather and tide predictions

Monte Tamaro — DFKP2 — position and weather